Saint Paul, MN (55114)

5:41 AM CST on December 09, 2016 (GMT -0600)
St. Anthony Park | | Change Station

Elev 961 ft 44.99 °N, 93.19 °W | Updated 20 seconds ago

Overcast
Overcast
16.0 °F
Feels Like 16 °F
N
0.6
Wind Variable Wind from NW
Gusts 3.7 mph

Today
High -- | Low -- °F
--% Chance of Precip.
Yesterday
High -- | Low -- °F
Precip. -- in
Pressure 30.59 in
Visibility 10.0 miles
Clouds Few 1500 ft
Overcast 6000 ft
Windchill 16 °F
Dew Point 11 °F
Humidity 79%
Rainfall 0.00 in
Snow Depth Not available.
7:39 AM 4:31 PM
Waxing Gibbous, 73% visible
METAR KMSP 091053Z 29006KT 10SM FEW015 OVC060 M10/M13 A3054 RMK AO2 SLP359 T11001128
Pressure 30.59 in
Visibility 10.0 miles
Clouds Few 1500 ft
Overcast 6000 ft
Windchill 16 °F
Dew Point 11 °F
Humidity 79%
Rainfall 0.00 in
Snow Depth Not available.
7:39 AM 4:31 PM
Waxing Gibbous, 73% visible
METAR KMSP 091053Z 29006KT 10SM FEW015 OVC060 M10/M13 A3054 RMK AO2 SLP359 T11001128

10-Day Weather Forecast

Almanac

Astronomy

Dec. 09, 2016 Rise Set
Actual Time
Civil Twilight
Nautical Twilight
Astronomical Twilight
Moon
Length of Visible Light
Length of Day
Tomorrow will be .
, % of the Moon is Illuminated

Today's Extremes

State Highs State Lows

Community

WunderPhotos

Upload Photos

1,956,378 photos uploaded!

WunderBlog® & News

Nearby

Air Quality

  Air Quality AQ Index Pollutant
Not available.

Snow Depth

Station Depth Elevation

Earthquake Activity

City Distance Mag. Time & Date
Minimum magnitude displayed is 2.5.

Coastal Water Temperatures

Place Temperature

Stations

Nearby Weather Stations

Station Location Temp. Windchill Dew Point Humidity Wind Precip. Elev Updated Type
                   

Watches & Warnings

There are currently no watches in effect.